Time;durP1;ratioP1;P1;durP2;ratioP2;P2;SDS_P1;SDS_P2;PMS_P1;PMS_P2;Temp;Humidity;BMP_temperature;BMP_pressure;BME280_temperature;BME280_humidity;BME280_pressure;Samples;Min_cycle;Max_cycle;Signal;HPM_P1;HPM_P2
2022/06/30 00:00:00;;;;;;;18.02;10.10;;;;;;;18.11;100.00;100155.41;1747571;82;21485;-71
2022/06/30 00:02:27;;;;;;;15.80;10.32;;;;;;;18.12;100.00;100151.77;1747427;81;21057;-71
2022/06/30 00:04:54;;;;;;;11.35;9.08;;;;;;;18.09;100.00;100153.31;1747708;82;21565;-71
2022/06/30 00:07:21;;;;;;;14.43;9.30;;;;;;;17.99;100.00;100160.20;1747665;82;21089;-72
2022/06/30 00:09:48;;;;;;;12.98;8.88;;;;;;;18.00;100.00;100169.93;1747677;82;21566;-72
2022/06/30 00:12:15;;;;;;;15.40;9.58;;;;;;;18.03;100.00;100160.38;1747477;82;21145;-72
2022/06/30 00:14:41;;;;;;;11.53;7.80;;;;;;;18.02;100.00;100149.36;1747505;82;21021;-71
2022/06/30 00:17:09;;;;;;;14.13;8.38;;;;;;;17.96;100.00;100153.28;1747483;82;21625;-71
2022/06/30 00:19:36;;;;;;;12.60;7.85;;;;;;;17.84;100.00;100139.95;1747530;82;21092;-70
2022/06/30 00:22:05;;;;;;;10.48;7.75;;;;;;;17.78;100.00;100136.72;1747666;82;21032;-71
2022/06/30 00:24:32;;;;;;;14.70;8.00;;;;;;;17.75;100.00;100140.89;1747627;82;21686;-71
2022/06/30 00:26:59;;;;;;;13.38;7.90;;;;;;;17.70;100.00;100152.34;1747552;82;21045;-72
2022/06/30 00:29:25;;;;;;;16.48;7.53;;;;;;;17.79;100.00;100154.39;1747765;82;21073;-72
2022/06/30 00:31:53;;;;;;;12.10;7.55;;;;;;;17.84;100.00;100155.45;1747700;82;21084;-71
2022/06/30 00:34:19;;;;;;;17.17;7.87;;;;;;;17.74;100.00;100151.19;1747955;82;21548;-70
2022/06/30 00:36:46;;;;;;;15.20;8.08;;;;;;;17.67;100.00;100156.55;1747698;82;21158;-71
2022/06/30 00:39:13;;;;;;;12.98;7.45;;;;;;;17.70;100.00;100160.81;1747693;82;21656;-71
2022/06/30 00:41:40;;;;;;;13.62;7.55;;;;;;;17.65;100.00;100172.25;1747757;82;21096;-73
2022/06/30 00:44:08;;;;;;;13.28;7.22;;;;;;;17.65;100.00;100178.91;1747942;81;21041;-70
2022/06/30 00:46:35;;;;;;;10.28;6.58;;;;;;;17.64;100.00;100185.17;1696835;82;21109;-71
2022/06/30 00:49:01;;;;;;;11.57;8.05;;;;;;;17.70;100.00;100186.96;1748085;82;21781;-71
2022/06/30 00:51:28;;;;;;;13.40;8.38;;;;;;;17.74;100.00;100175.16;1747586;82;21003;-71
2022/06/30 00:53:55;;;;;;;12.30;8.13;;;;;;;17.73;100.00;100185.91;1726819;82;21613;-72
2022/06/30 00:56:23;;;;;;;11.88;8.28;;;;;;;17.68;100.00;100186.20;1717618;83;21092;-70
2022/06/30 00:58:50;;;;;;;16.65;7.90;;;;;;;17.68;100.00;100181.36;1691532;83;21121;-72
2022/06/30 01:01:20;;;;;;;11.95;7.03;;;;;;;17.66;100.00;100181.45;1717612;83;21910;-71
2022/06/30 01:03:47;;;;;;;10.88;7.72;;;;;;;17.73;100.00;100181.42;1717635;82;21073;-71
2022/06/30 01:06:13;;;;;;;10.55;7.40;;;;;;;17.76;100.00;100179.91;1717847;83;21021;-71
2022/06/30 01:08:40;;;;;;;10.82;8.15;;;;;;;17.76;100.00;100170.59;1717882;83;21034;-72
2022/06/30 01:13:52;;;;;;;12.18;7.90;;;;;;;17.73;100.00;100164.59;1717909;83;21172;-71
2022/06/30 01:16:21;;;;;;;13.95;8.03;;;;;;;17.72;100.00;100161.08;1717561;83;21141;-71
2022/06/30 01:18:49;;;;;;;17.23;8.43;;;;;;;17.75;100.00;100164.87;1717812;83;21108;-71
2022/06/30 01:21:17;;;;;;;10.13;8.45;;;;;;;17.75;100.00;100168.86;1717601;83;21108;-71
2022/06/30 01:23:44;;;;;;;10.05;6.90;;;;;;;17.75;100.00;100170.19;1717636;83;21073;-72
2022/06/30 01:26:11;;;;;;;13.90;8.08;;;;;;;17.80;100.00;100184.53;1717359;83;21203;-71
2022/06/30 01:28:38;;;;;;;14.53;8.43;;;;;;;17.74;100.00;100180.48;1717552;83;21068;-71
2022/06/30 01:31:05;;;;;;;15.85;7.87;;;;;;;17.74;100.00;100172.49;1717799;83;21311;-72
2022/06/30 01:33:32;;;;;;;13.83;8.35;;;;;;;17.68;100.00;100168.89;1717899;83;21053;-70
2022/06/30 01:35:58;;;;;;;13.68;8.00;;;;;;;17.67;100.00;100167.66;1717970;83;22219;-72
2022/06/30 01:38:25;;;;;;;9.83;7.12;;;;;;;17.59;100.00;100168.17;1717720;83;21167;-71
2022/06/30 01:40:52;;;;;;;10.60;7.85;;;;;;;17.60;100.00;100169.41;1717592;83;21079;-71
2022/06/30 01:43:19;;;;;;;10.82;7.22;;;;;;;17.58;100.00;100170.47;1717463;83;21113;-71
2022/06/30 01:45:46;;;;;;;18.57;8.38;;;;;;;17.57;100.00;100158.09;1717538;83;21092;-71
2022/06/30 01:48:14;;;;;;;14.60;8.50;;;;;;;17.59;100.00;100153.52;1717670;83;21069;-72
2022/06/30 01:50:40;;;;;;;10.70;8.33;;;;;;;17.61;100.00;100158.27;1717850;83;21119;-71
2022/06/30 01:53:07;;;;;;;13.85;8.95;;;;;;;17.54;100.00;100151.64;1729102;82;21170;-72
2022/06/30 01:55:34;;;;;;;15.88;8.53;;;;;;;17.50;100.00;100154.12;1747969;82;21057;-71
2022/06/30 01:58:00;;;;;;;11.53;8.25;;;;;;;17.50;100.00;100139.48;1747782;82;21526;-73
2022/06/30 02:00:27;;;;;;;15.53;9.45;;;;;;;17.49;100.00;100135.13;1747999;81;21085;-72
2022/06/30 02:02:55;;;;;;;13.80;8.50;;;;;;;17.52;100.00;100143.75;1747487;81;21129;-72
2022/06/30 02:05:22;;;;;;;12.28;8.73;;;;;;;17.54;100.00;100138.33;1747644;82;21086;-72
2022/06/30 02:07:49;;;;;;;13.25;7.92;;;;;;;17.53;100.00;100139.27;1747689;82;21557;-72
2022/06/30 02:10:19;;;;;;;11.88;7.72;;;;;;;17.54;100.00;100141.00;1747829;82;21108;-70
2022/06/30 02:12:46;;;;;;;14.50;8.77;;;;;;;17.57;100.00;100147.44;1747918;82;21537;-72
2022/06/30 02:15:22;;;;;;;10.65;7.22;;;;;;;17.55;100.00;100156.00;1747584;81;21074;-71
2022/06/30 02:17:53;;;;;;;13.70;8.63;;;;;;;17.56;100.00;100157.73;1747649;82;21081;-71
2022/06/30 02:20:22;;;;;;;15.03;9.05;;;;;;;17.53;100.00;100161.91;1747943;82;21088;-72
2022/06/30 02:22:55;;;;;;;14.13;8.40;;;;;;;17.61;100.00;100166.27;1747573;82;21061;-71
2022/06/30 02:25:26;;;;;;;12.63;8.70;;;;;;;17.62;100.00;100167.95;1747428;82;21078;-71
2022/06/30 02:27:54;;;;;;;12.33;7.80;;;;;;;17.63;100.00;100157.70;1747535;82;21889;-71
2022/06/30 02:30:21;;;;;;;13.78;8.88;;;;;;;17.67;100.00;100160.54;1747441;82;21081;-70
2022/06/30 02:32:48;;;;;;;13.25;7.95;;;;;;;17.63;100.00;100166.17;1747271;82;21116;-72
2022/06/30 02:35:16;;;;;;;16.20;8.93;;;;;;;17.58;100.00;100162.48;1747434;82;21046;-71
2022/06/30 02:37:43;;;;;;;12.50;9.40;;;;;;;17.55;100.00;100161.33;1747584;82;21045;-71
2022/06/30 02:40:10;;;;;;;11.30;8.70;;;;;;;17.51;100.00;100160.69;1747460;82;21821;-71
2022/06/30 02:42:38;;;;;;;15.93;9.05;;;;;;;17.48;100.00;100158.21;1747700;82;21060;-71
2022/06/30 02:45:06;;;;;;;15.38;8.70;;;;;;;17.48;100.00;100157.36;1747632;82;21060;-71
2022/06/30 02:47:35;;;;;;;12.82;8.03;;;;;;;17.50;100.00;100163.44;1747626;82;21064;-71
2022/06/30 02:50:04;;;;;;;14.13;8.98;;;;;;;17.53;100.00;100161.91;1747684;82;21586;-70
2022/06/30 02:52:32;;;;;;;11.68;8.60;;;;;;;17.58;100.00;100161.15;1743959;81;21734;-71
2022/06/30 02:54:59;;;;;;;11.03;8.25;;;;;;;17.60;100.00;100159.24;1717517;83;21033;-72
2022/06/30 02:57:26;;;;;;;13.43;7.85;;;;;;;17.70;100.00;100165.66;1717866;83;21029;-71
2022/06/30 02:59:53;;;;;;;14.13;7.60;;;;;;;17.81;100.00;100160.50;1717647;83;21077;-71
2022/06/30 03:02:20;;;;;;;10.68;8.08;;;;;;;17.89;100.00;100161.80;1717901;83;21033;-72
2022/06/30 03:04:47;;;;;;;12.50;8.23;;;;;;;17.96;100.00;100159.09;1730099;82;21125;-71
2022/06/30 03:07:14;;;;;;;13.60;8.35;;;;;;;18.03;100.00;100164.38;1730895;82;21065;-72
2022/06/30 03:09:40;;;;;;;12.35;8.50;;;;;;;18.11;100.00;100163.40;1730917;82;21054;-71
2022/06/30 03:12:08;;;;;;;16.05;8.50;;;;;;;18.24;100.00;100168.27;1731160;82;21649;-72
2022/06/30 03:14:36;;;;;;;12.73;8.40;;;;;;;18.33;100.00;100175.25;1731092;82;21760;-72
2022/06/30 03:17:03;;;;;;;12.85;8.60;;;;;;;18.37;100.00;100172.75;1731196;82;21091;-72
2022/06/30 03:19:31;;;;;;;13.35;7.55;;;;;;;18.41;100.00;100171.59;1730963;82;21562;-72
2022/06/30 03:21:57;;;;;;;15.48;8.95;;;;;;;18.43;100.00;100169.67;1730963;82;21082;-72
2022/06/30 03:24:24;;;;;;;12.90;7.78;;;;;;;18.52;100.00;100171.70;1731007;82;21543;-71
2022/06/30 03:26:50;;;;;;;7.60;6.28;;;;;;;18.68;100.00;100174.16;1730962;82;21078;-70
2022/06/30 03:29:18;;;;;;;10.48;8.18;;;;;;;18.81;100.00;100167.49;1731126;82;21130;-71
2022/06/30 03:31:45;;;;;;;12.90;7.83;;;;;;;18.92;100.00;100158.25;1731184;82;21633;-71
2022/06/30 03:34:11;;;;;;;14.98;7.78;;;;;;;19.06;100.00;100159.92;1731222;81;21062;-71
2022/06/30 03:36:38;;;;;;;13.18;7.45;;;;;;;19.16;100.00;100161.44;1731085;82;21121;-70
2022/06/30 03:39:06;;;;;;;11.43;6.58;;;;;;;19.28;100.00;100161.91;1731139;82;21053;-72
2022/06/30 03:41:32;;;;;;;10.50;8.30;;;;;;;19.41;100.00;100167.19;1716447;78;21132;-71
2022/06/30 03:44:00;;;;;;;13.08;7.35;;;;;;;19.57;100.00;100172.25;1683345;84;21063;-71
2022/06/30 03:46:27;;;;;;;17.17;7.53;;;;;;;19.72;100.00;100176.50;1675902;85;21055;-70
2022/06/30 03:48:55;;;;;;;15.95;8.68;;;;;;;19.86;100.00;100170.13;1738924;82;22232;-71
2022/06/30 03:51:22;;;;;;;11.08;7.72;;;;;;;20.05;100.00;100170.43;1703540;84;21101;-71
2022/06/30 03:53:49;;;;;;;13.38;8.75;;;;;;;20.21;100.00;100174.12;1689868;84;21138;-71
2022/06/30 03:56:15;;;;;;;18.98;7.97;;;;;;;20.42;100.00;100180.13;1687485;81;21070;-70
2022/06/30 03:58:42;;;;;;;12.68;7.30;;;;;;;20.55;100.00;100182.23;1662283;84;21088;-72
2022/06/30 04:01:11;;;;;;;9.40;7.90;;;;;;;20.66;100.00;100192.98;1662438;86;21603;-71
2022/06/30 04:03:38;;;;;;;10.18;7.67;;;;;;;20.80;100.00;100189.22;1662698;86;21113;-70
2022/06/30 04:06:05;;;;;;;9.70;8.10;;;;;;;20.93;100.00;100194.44;1662417;86;21220;-71
2022/06/30 04:08:31;;;;;;;13.58;7.03;;;;;;;20.99;100.00;100189.09;1662505;86;21085;-70
2022/06/30 04:10:59;;;;;;;8.38;6.70;;;;;;;21.02;100.00;100200.39;1661819;82;21053;-71
2022/06/30 04:13:25;;;;;;;9.43;7.47;;;;;;;21.11;100.00;100198.33;1659623;85;21085;-72
2022/06/30 04:15:51;;;;;;;11.75;7.40;;;;;;;21.23;100.00;100200.50;1660062;85;21133;-71
2022/06/30 04:18:18;;;;;;;10.55;7.83;;;;;;;21.38;100.00;100203.78;1660205;86;21665;-72
2022/06/30 04:20:45;;;;;;;9.90;7.92;;;;;;;21.55;100.00;100207.79;1659992;86;21414;-71
2022/06/30 04:23:11;;;;;;;14.18;8.33;;;;;;;21.66;100.00;100210.94;1659849;86;21112;-71
2022/06/30 04:25:38;;;;;;;10.95;7.95;;;;;;;21.72;100.00;100214.47;1659197;83;20959;-71
2022/06/30 04:28:07;;;;;;;13.50;9.03;;;;;;;21.85;100.00;100212.95;1646370;87;21640;-71
2022/06/30 04:33:19;;;;;;;8.30;6.90;;;;;;;22.04;100.00;100213.59;1650142;87;21058;-71
2022/06/30 04:35:45;;;;;;;14.33;8.25;;;;;;;22.23;100.00;100212.45;1650385;86;21132;-72
2022/06/30 04:38:12;;;;;;;9.98;8.28;;;;;;;22.39;100.00;100215.54;1650165;87;21105;-71
2022/06/30 04:43:23;;;;;;;12.15;8.93;;;;;;;22.70;100.00;100213.39;1735103;82;21736;-72
2022/06/30 04:45:50;;;;;;;13.10;9.13;;;;;;;22.79;99.79;100218.80;1735001;82;21050;-73
2022/06/30 04:48:19;;;;;;;13.85;9.35;;;;;;;22.87;99.07;100215.47;1734551;82;21034;-73
2022/06/30 04:50:46;;;;;;;12.00;9.88;;;;;;;22.93;98.66;100206.02;1735029;81;21059;-71
2022/06/30 04:53:13;;;;;;;14.28;10.50;;;;;;;23.02;97.45;100203.89;1735318;82;21577;-71
2022/06/30 04:55:40;;;;;;;12.10;9.45;;;;;;;23.10;97.03;100202.74;1728350;81;21229;-71
2022/06/30 04:58:07;;;;;;;14.28;10.00;;;;;;;23.14;95.89;100206.83;1640063;87;20986;-71
2022/06/30 05:00:34;;;;;;;14.93;9.63;;;;;;;23.18;95.26;100206.08;1640067;87;21053;-70
2022/06/30 05:03:01;;;;;;;14.63;9.83;;;;;;;23.18;95.49;100209.61;1640278;87;21049;-71
2022/06/30 05:05:27;;;;;;;20.15;11.08;;;;;;;23.25;95.42;100216.13;1640019;87;21061;-71
2022/06/30 05:07:54;;;;;;;18.82;10.63;;;;;;;23.34;94.58;100214.97;1640223;87;21048;-71
2022/06/30 05:10:21;;;;;;;22.95;11.75;;;;;;;23.46;94.93;100216.55;1640059;87;21010;-70
2022/06/30 05:12:48;;;;;;;27.13;16.42;;;;;;;23.61;94.27;100212.48;1692350;82;21454;-72
2022/06/30 05:15:14;;;;;;;40.03;19.67;;;;;;;23.78;93.58;100213.67;1696601;83;21026;-72
2022/06/30 05:17:42;;;;;;;40.45;21.42;;;;;;;23.93;91.60;100215.47;1696674;84;21053;-72
2022/06/30 05:20:10;;;;;;;28.27;17.90;;;;;;;24.00;91.30;100215.25;1696615;84;21123;-72
2022/06/30 05:22:37;;;;;;;31.52;22.27;;;;;;;24.13;90.76;100224.87;1696692;84;21053;-72
2022/06/30 05:27:49;;;;;;;28.95;21.45;;;;;;;24.51;89.21;100217.80;1665227;78;21033;-73
2022/06/30 05:30:15;;;;;;;21.35;18.35;;;;;;;24.66;87.85;100214.98;1663834;86;21455;-71
2022/06/30 05:32:43;;;;;;;28.57;16.48;;;;;;;24.79;87.35;100214.17;1663636;86;21494;-71
2022/06/30 05:35:10;;;;;;;18.87;12.40;;;;;;;24.97;84.92;100210.72;1663806;85;21070;-72
2022/06/30 05:37:38;;;;;;;17.87;12.43;;;;;;;25.04;84.79;100217.21;1662671;86;21521;-71
2022/06/30 05:40:06;;;;;;;15.32;10.58;;;;;;;25.24;84.92;100206.73;1663805;86;21045;-73
2022/06/30 05:42:33;;;;;;;10.75;9.08;;;;;;;25.51;82.75;100215.31;1652410;83;21006;-72
2022/06/30 05:44:59;;;;;;;16.65;9.75;;;;;;;25.74;82.13;100215.72;1651592;86;21479;-71
2022/06/30 05:47:26;;;;;;;10.60;8.15;;;;;;;25.98;81.02;100216.16;1651209;87;21079;-71
2022/06/30 05:49:53;;;;;;;11.08;8.23;;;;;;;26.12;80.72;100218.30;1651792;86;21107;-72
2022/06/30 05:52:19;;;;;;;10.32;7.70;;;;;;;26.42;79.31;100216.18;1652210;86;21055;-72
2022/06/30 05:54:46;;;;;;;12.95;7.62;;;;;;;26.63;77.10;100214.50;1670746;86;21466;-72
2022/06/30 05:57:12;;;;;;;13.98;9.03;;;;;;;26.75;76.31;100211.35;1661088;82;21161;-73
2022/06/30 05:59:39;;;;;;;18.27;8.45;;;;;;;26.83;74.71;100213.79;1658428;86;21070;-70
2022/06/30 06:02:07;;;;;;;13.35;8.13;;;;;;;26.76;75.43;100209.53;1689349;85;21526;-72
2022/06/30 06:04:34;;;;;;;10.75;8.18;;;;;;;26.77;75.49;100208.50;1689718;85;21042;-71
2022/06/30 06:07:02;;;;;;;19.55;9.03;;;;;;;26.88;75.21;100201.48;1689378;85;21021;-73
2022/06/30 06:09:32;;;;;;;13.90;9.20;;;;;;;26.90;74.69;100206.22;1689918;85;21173;-74
2022/06/30 06:11:58;;;;;;;13.22;8.45;;;;;;;26.96;74.24;100204.23;1709241;81;20999;-72
2022/06/30 06:14:25;;;;;;;10.85;7.65;;;;;;;27.14;74.04;100203.28;1733054;82;21085;-73
2022/06/30 06:16:51;;;;;;;12.37;7.20;;;;;;;27.33;73.87;100203.08;1732979;82;20955;-74
2022/06/30 06:19:18;;;;;;;8.93;6.83;;;;;;;27.70;72.31;100192.84;1733232;82;20998;-72
2022/06/30 06:21:45;;;;;;;8.08;6.35;;;;;;;28.00;70.86;100195.47;1732995;82;21711;-72
2022/06/30 06:24:12;;;;;;;9.10;6.05;;;;;;;28.24;69.99;100199.51;1733084;82;21144;-73
2022/06/30 06:26:39;;;;;;;11.40;7.55;;;;;;;28.61;69.15;100197.31;1714814;81;21543;-73
2022/06/30 06:29:05;;;;;;;11.93;8.05;;;;;;;28.94;66.04;100202.15;1683955;85;21014;-72
2022/06/30 06:31:37;;;;;;;9.85;7.12;;;;;;;29.02;65.32;100200.75;1684187;85;21518;-73
2022/06/30 06:34:04;;;;;;;14.68;7.55;;;;;;;29.06;64.53;100199.91;1684062;85;21203;-72
2022/06/30 06:36:32;;;;;;;12.63;6.87;;;;;;;29.20;64.40;100192.41;1683932;85;20978;-72
2022/06/30 06:38:59;;;;;;;15.78;6.50;;;;;;;29.45;64.42;100185.00;1683910;85;21507;-71
2022/06/30 06:41:25;;;;;;;13.95;5.55;;;;;;;29.68;58.70;100192.36;1695881;80;20998;-73
2022/06/30 06:43:52;;;;;;;17.23;7.80;;;;;;;29.43;60.20;100184.33;1762134;81;21058;-73
2022/06/30 06:46:22;;;;;;;20.57;8.18;;;;;;;29.10;61.63;100193.63;1762468;81;21112;-72
2022/06/30 06:48:48;;;;;;;24.12;8.38;;;;;;;29.00;63.04;100196.01;1762051;81;20971;-72
2022/06/30 06:51:15;;;;;;;29.85;8.03;;;;;;;28.96;62.58;100201.44;1762500;81;20959;-72
2022/06/30 06:53:42;;;;;;;27.58;9.35;;;;;;;28.82;61.76;100191.33;1755744;81;20965;-73
2022/06/30 06:56:09;;;;;;;17.87;8.28;;;;;;;28.75;62.91;100187.62;1749697;79;21018;-73
2022/06/30 07:11:48;;;;;;;17.15;8.55;;;;;;;29.62;62.49;100188.97;1888535;76;22579;-72
2022/06/30 07:14:15;;;;;;;21.05;8.30;;;;;;;29.47;61.71;100193.81;1859232;77;21029;-72
2022/06/30 07:16:41;;;;;;;23.57;7.90;;;;;;;29.31;62.34;100204.75;1859276;77;21741;-73
2022/06/30 07:19:08;;;;;;;13.78;6.90;;;;;;;29.31;62.34;100204.75;1859375;77;20933;-71
2022/06/30 07:21:35;;;;;;;13.83;7.42;;;;;;;29.32;63.12;100203.71;1859470;77;21075;-74
2022/06/30 07:24:01;;;;;;;16.93;7.30;;;;;;;29.44;62.88;100203.64;1859304;77;21024;-71
2022/06/30 07:26:28;;;;;;;12.23;6.83;;;;;;;29.58;62.53;100196.61;1859271;77;21007;-72
2022/06/30 07:28:55;;;;;;;14.55;7.37;;;;;;;29.58;62.53;100196.61;1859095;77;21282;-73
2022/06/30 07:31:23;;;;;;;14.38;6.15;;;;;;;29.63;60.52;100196.07;1859414;77;21036;-72
2022/06/30 07:33:49;;;;;;;10.58;5.95;;;;;;;29.54;59.30;100198.50;1859140;77;20999;-72
2022/06/30 07:36:16;;;;;;;8.05;5.55;;;;;;;29.14;58.01;100203.11;1859488;77;21036;-73
2022/06/30 07:38:44;;;;;;;12.98;7.17;;;;;;;29.14;58.01;100203.11;1859293;77;21460;-72
2022/06/30 07:41:11;;;;;;;13.78;6.50;;;;;;;29.10;58.90;100200.41;1859696;77;21129;-72
2022/06/30 07:43:38;;;;;;;10.88;6.85;;;;;;;28.94;58.89;100198.09;1859179;77;21020;-73
2022/06/30 07:46:06;;;;;;;12.35;7.37;;;;;;;28.85;59.94;100196.42;1859671;77;21032;-71
2022/06/30 07:48:33;;;;;;;11.45;6.83;;;;;;;29.11;60.09;100193.98;1859350;77;21009;-72
2022/06/30 07:51:00;;;;;;;10.25;6.85;;;;;;;29.41;58.65;100199.09;1859324;77;21531;-72
2022/06/30 07:53:26;;;;;;;12.23;6.47;;;;;;;29.63;58.01;100210.51;1849516;77;21297;-72
2022/06/30 07:55:54;;;;;;;11.95;6.45;;;;;;;29.73;58.48;100198.61;1840074;78;21543;-72
2022/06/30 07:58:20;;;;;;;9.28;6.15;;;;;;;30.02;56.23;100191.08;1839806;78;21058;-73
2022/06/30 08:00:47;;;;;;;13.98;8.35;;;;;;;30.43;55.17;100191.59;1840066;78;21097;-71
2022/06/30 08:03:14;;;;;;;12.00;7.30;;;;;;;30.74;55.56;100190.09;1839836;78;21035;-72
2022/06/30 08:05:44;;;;;;;12.95;7.47;;;;;;;30.93;53.75;100187.36;1839939;78;21527;-72
2022/06/30 08:08:11;;;;;;;11.55;6.80;;;;;;;30.88;53.02;100184.89;1840222;78;20984;-72
2022/06/30 08:10:38;;;;;;;9.68;6.75;;;;;;;30.81;52.68;100185.28;1816637;78;21075;-71
2022/06/30 08:13:04;;;;;;;10.38;6.30;;;;;;;30.84;52.92;100180.33;1807081;79;21547;-71
2022/06/30 08:15:31;;;;;;;12.73;6.45;;;;;;;31.07;51.12;100188.38;1807111;79;21014;-72
2022/06/30 08:18:05;;;;;;;11.18;5.45;;;;;;;31.02;50.69;100186.75;1806742;79;21058;-72
2022/06/30 08:20:32;;;;;;;8.13;5.50;;;;;;;30.97;50.99;100183.77;1806695;79;21065;-72
2022/06/30 08:22:58;;;;;;;8.73;5.40;;;;;;;30.93;51.53;100183.80;1806262;79;21011;-72
2022/06/30 08:25:26;;;;;;;7.30;5.72;;;;;;;30.93;50.57;100190.60;1806001;79;21102;-72
2022/06/30 08:27:52;;;;;;;11.03;6.42;;;;;;;31.07;51.79;100191.10;1806181;79;21043;-72
2022/06/30 08:30:19;;;;;;;11.70;6.50;;;;;;;31.35;51.48;100189.05;1806093;79;21357;-72
2022/06/30 08:32:46;;;;;;;7.30;6.17;;;;;;;31.72;49.92;100193.47;1776769;79;21043;-72
2022/06/30 08:35:13;;;;;;;8.68;5.65;;;;;;;31.79;51.16;100190.81;1806095;79;21125;-74
2022/06/30 08:37:40;;;;;;;8.20;6.22;;;;;;;32.03;50.53;100187.44;1806025;79;22046;-71
2022/06/30 08:42:54;;;;;;;6.85;5.90;;;;;;;32.06;49.34;100189.76;1806072;79;21110;-72
2022/06/30 08:45:20;;;;;;;7.50;5.35;;;;;;;32.12;49.86;100191.70;1806290;79;21050;-72
2022/06/30 08:47:49;;;;;;;8.78;6.08;;;;;;;32.21;49.91;100185.08;1806024;79;21538;-72
2022/06/30 08:50:17;;;;;;;7.42;5.35;;;;;;;32.54;48.68;100188.08;1806338;79;21066;-72
2022/06/30 08:52:52;;;;;;;5.35;4.85;;;;;;;32.51;48.13;100197.16;1810106;78;21534;-73
2022/06/30 08:55:30;;;;;;;5.97;5.00;;;;;;;32.33;47.62;100194.39;1825125;78;21082;-72
2022/06/30 08:58:06;;;;;;;6.87;5.10;;;;;;;32.23;48.46;100193.88;1824671;78;21598;-73
2022/06/30 09:00:35;;;;;;;8.13;4.83;;;;;;;32.20;49.83;100190.19;1825136;78;21051;-73
2022/06/30 09:03:03;;;;;;;7.70;5.65;;;;;;;32.29;48.95;100186.28;1824770;78;21035;-73
2022/06/30 09:05:31;;;;;;;6.72;5.10;;;;;;;32.29;49.69;100186.28;1825216;78;21106;-72
2022/06/30 09:07:58;;;;;;;6.97;5.58;;;;;;;32.25;50.13;100189.07;1824917;78;22083;-74
2022/06/30 09:10:25;;;;;;;7.00;4.67;;;;;;;32.14;49.66;100187.75;1824698;77;21036;-72
2022/06/30 09:13:03;;;;;;;4.70;4.03;;;;;;;31.98;47.90;100188.86;1824778;78;21094;-72
2022/06/30 09:15:39;;;;;;;6.95;4.97;;;;;;;31.63;48.37;100184.27;1824974;78;21527;-71
2022/06/30 09:18:06;;;;;;;5.72;4.50;;;;;;;31.57;49.13;100183.16;1820160;78;21043;-74
2022/06/30 09:20:37;;;;;;;7.12;4.37;;;;;;;31.55;48.70;100192.87;1824836;78;20976;-73
2022/06/30 09:23:29;;;;;;;5.80;5.20;;;;;;;31.52;47.85;100182.91;1824741;78;22089;-73
2022/06/30 09:25:59;;;;;;;5.20;4.47;;;;;;;31.49;48.69;100185.99;1824732;78;21048;-73
2022/06/30 09:28:43;;;;;;;7.05;4.67;;;;;;;31.55;48.06;100187.95;1806808;78;21509;-73
2022/06/30 09:31:11;;;;;;;5.87;4.42;;;;;;;31.83;49.92;100190.77;1785522;80;21123;-72
2022/06/30 09:33:39;;;;;;;4.55;4.15;;;;;;;32.08;49.64;100187.69;1786332;80;21778;-72
2022/06/30 09:36:26;;;;;;;5.92;4.00;;;;;;;32.14;48.23;100182.79;1786077;80;21080;-73
2022/06/30 09:39:07;;;;;;;4.78;4.17;;;;;;;32.23;48.39;100182.14;1786185;80;21040;-72
2022/06/30 09:41:41;;;;;;;8.73;4.70;;;;;;;32.68;45.29;100182.72;1785611;80;21126;-73
2022/06/30 09:44:22;;;;;;;5.45;3.98;;;;;;;32.94;45.57;100191.05;1786409;80;21045;-71
2022/06/30 09:47:07;;;;;;;7.20;4.45;;;;;;;33.01;44.12;100193.81;1786205;80;21252;-73
2022/06/30 09:49:36;;;;;;;5.37;4.17;;;;;;;33.33;44.25;100196.92;1786247;80;21025;-71
2022/06/30 09:52:19;;;;;;;4.77;3.57;;;;;;;33.38;41.01;100190.33;1786251;80;21636;-71
2022/06/30 09:55:04;;;;;;;6.05;3.77;;;;;;;33.38;41.34;100187.59;1765288;80;21083;-72
2022/06/30 09:57:38;;;;;;;7.30;4.25;;;;;;;33.58;40.93;100181.71;1792354;80;21048;-72
2022/06/30 10:00:16;;;;;;;5.65;4.25;;;;;;;33.84;40.08;100191.00;1727409;83;21105;-72
2022/06/30 10:02:48;;;;;;;4.65;4.25;;;;;;;33.58;39.56;100183.07;1725866;83;21021;-73
2022/06/30 10:05:17;;;;;;;5.70;3.85;;;;;;;33.46;40.04;100186.06;1757510;81;21079;-71
2022/06/30 10:07:43;;;;;;;4.15;3.75;;;;;;;33.26;41.33;100191.97;1760376;81;21051;-72
2022/06/30 10:10:13;;;;;;;5.05;3.77;;;;;;;32.95;40.23;100187.81;1760317;81;21067;-71
2022/06/30 10:12:40;;;;;;;4.78;3.72;;;;;;;32.90;40.73;100182.10;1725570;83;21151;-74
2022/06/30 10:15:08;;;;;;;4.90;3.92;;;;;;;32.88;40.72;100182.32;1757246;81;21092;-72
2022/06/30 10:17:43;;;;;;;5.65;3.30;;;;;;;32.85;40.56;100175.88;1760286;81;21064;-71
2022/06/30 10:20:11;;;;;;;5.65;3.52;;;;;;;32.68;40.09;100171.81;1725174;83;21135;-72
2022/06/30 10:22:39;;;;;;;14.87;4.37;;;;;;;32.52;40.47;100172.97;1757565;81;21076;-72
2022/06/30 10:25:08;;;;;;;5.78;4.03;;;;;;;32.47;40.14;100168.61;1760103;81;21226;-73
2022/06/30 10:27:36;;;;;;;3.92;3.52;;;;;;;32.69;40.63;100168.03;1720994;83;21022;-71
2022/06/30 10:30:11;;;;;;;4.58;3.55;;;;;;;33.14;41.93;100177.54;1757248;81;21129;-73
2022/06/30 10:33:02;;;;;;;5.25;4.00;;;;;;;33.38;39.97;100178.05;1756881;81;21043;-72
2022/06/30 10:35:42;;;;;;;7.17;3.80;;;;;;;33.15;39.72;100176.52;1760605;81;21068;-72
2022/06/30 10:38:42;;;;;;;7.33;4.10;;;;;;;32.76;42.36;100167.05;1760479;81;21322;-73
2022/06/30 10:41:12;;;;;;;6.97;4.25;;;;;;;32.62;41.46;100167.98;1747729;82;21542;-72
2022/06/30 10:44:08;;;;;;;4.95;3.77;;;;;;;32.48;41.40;100158.84;1747392;82;21048;-72
2022/06/30 10:46:47;;;;;;;5.85;4.00;;;;;;;32.76;41.87;100160.23;1747535;82;21104;-72
2022/06/30 10:49:14;;;;;;;4.78;3.98;;;;;;;33.26;40.48;100164.68;1747697;82;21103;-72
2022/06/30 10:51:41;;;;;;;7.60;3.85;;;;;;;33.32;40.47;100162.51;1747526;82;21197;-72
2022/06/30 10:54:09;;;;;;;4.55;3.58;;;;;;;33.30;40.26;100162.70;1742658;81;21594;-71
2022/06/30 10:56:57;;;;;;;6.28;3.37;;;;;;;33.30;39.82;100165.96;1752647;81;21527;-71
2022/06/30 10:59:34;;;;;;;4.17;3.60;;;;;;;33.21;39.97;100173.48;1751039;82;21062;-72
2022/06/30 11:02:15;;;;;;;4.12;3.05;;;;;;;33.39;39.40;100162.00;1752550;81;21595;-73
2022/06/30 11:04:49;;;;;;;3.08;2.77;;;;;;;33.42;37.04;100157.48;1751059;82;21552;-71
2022/06/30 11:07:21;;;;;;;4.35;2.90;;;;;;;33.25;37.76;100163.02;1752896;81;21028;-72
2022/06/30 11:09:57;;;;;;;4.35;2.60;;;;;;;33.07;37.20;100163.03;1750860;81;21018;-73
2022/06/30 11:12:37;;;;;;;2.77;2.58;;;;;;;32.91;35.86;100161.45;1747825;81;21021;-73
2022/06/30 11:15:04;;;;;;;3.45;2.65;;;;;;;33.01;36.80;100155.62;1745533;82;21067;-71
2022/06/30 11:17:34;;;;;;;3.95;2.50;;;;;;;33.29;35.95;100162.40;1754324;81;21810;-72
2022/06/30 11:20:05;;;;;;;4.92;2.92;;;;;;;33.60;35.72;100156.41;1754332;81;21053;-72
2022/06/30 11:22:33;;;;;;;3.00;2.70;;;;;;;33.37;36.43;100150.45;1754504;81;21057;-72
2022/06/30 11:25:06;;;;;;;2.40;2.20;;;;;;;32.88;34.86;100152.85;1754416;81;21044;-72
2022/06/30 11:27:36;;;;;;;2.72;2.00;;;;;;;32.66;34.88;100147.47;1754648;81;21505;-73
2022/06/30 11:30:09;;;;;;;4.58;2.70;;;;;;;32.90;34.86;100153.46;1754546;81;21857;-73
2022/06/30 11:32:36;;;;;;;4.65;2.50;;;;;;;32.93;36.02;100153.08;1754516;81;21039;-72
2022/06/30 11:35:05;;;;;;;2.83;2.42;;;;;;;32.86;35.65;100156.30;1754785;81;21611;-72
2022/06/30 11:37:35;;;;;;;3.95;3.20;;;;;;;32.68;34.85;100148.11;1754582;81;21555;-72
2022/06/30 11:40:08;;;;;;;5.25;3.10;;;;;;;32.34;37.61;100148.38;1754968;81;21585;-72
2022/06/30 11:42:35;;;;;;;2.67;2.30;;;;;;;32.19;37.24;100139.48;1754480;81;21248;-71
2022/06/30 11:45:10;;;;;;;2.70;2.37;;;;;;;32.02;35.70;100144.88;1754586;81;21061;-71
2022/06/30 11:47:36;;;;;;;3.62;2.30;;;;;;;32.07;36.71;100139.67;1749378;81;21073;-71
2022/06/30 11:50:04;;;;;;;2.85;2.50;;;;;;;32.12;35.46;100137.23;1754686;81;21529;-72